Time;durP1;ratioP1;P1;durP2;ratioP2;P2;SDS_P1;SDS_P2;PMS_P1;PMS_P2;Temp;Humidity;BMP_temperature;BMP_pressure;BME280_temperature;BME280_humidity;BME280_pressure;Samples;Min_cycle;Max_cycle;Signal;HPM_P1;HPM_P2
2022/01/04 00:01:27;;;;;;;30.27;6.43;;;;;;;;;;5055918;28;20049;-66
2022/01/04 00:03:53;;;;;;;20.40;5.93;;;8.30;99.90;;;;;;5055951;28;20083;-66
2022/01/04 00:06:19;;;;;;;23.67;7.22;;;;;;;;;;5057324;28;20037;-66
2022/01/04 00:08:44;;;;;;;27.63;7.00;;;8.40;99.90;;;;;;5039160;28;20036;-66
2022/01/04 00:11:31;;;;;;;25.23;6.47;;;8.40;99.90;;;;;;5055820;28;20048;-66
2022/01/04 00:13:56;;;;;;;31.42;6.45;;;8.30;99.90;;;;;;5055509;28;20116;-66
2022/01/04 00:16:22;;;;;;;24.17;6.78;;;8.40;99.90;;;;;;5052754;28;20061;-66
2022/01/04 00:18:48;;;;;;;25.17;6.57;;;8.20;99.90;;;;;;5055998;28;20376;-66
2022/01/04 00:21:14;;;;;;;23.73;6.65;;;;;;;;;;5056427;28;20033;-66
2022/01/04 00:23:39;;;;;;;31.65;8.77;;;8.50;99.90;;;;;;5054661;28;20053;-66
2022/01/04 00:26:05;;;;;;;31.75;7.07;;;8.30;99.90;;;;;;5037912;28;20048;-66
2022/01/04 00:28:30;;;;;;;38.05;7.47;;;8.20;99.90;;;;;;5055564;28;20039;-66
2022/01/04 00:30:57;;;;;;;20.88;6.78;;;8.40;99.90;;;;;;5055886;28;20053;-67
2022/01/04 00:33:23;;;;;;;28.63;6.53;;;;;;;;;;5055423;28;20037;-66
2022/01/04 00:35:48;;;;;;;17.13;5.70;;;8.30;99.90;;;;;;5054854;28;20041;-66
2022/01/04 00:38:14;;;;;;;28.02;7.20;;;8.30;99.90;;;;;;5054750;28;20491;-66
2022/01/04 00:40:40;;;;;;;31.25;6.55;;;8.20;99.90;;;;;;5054964;28;20084;-66
2022/01/04 00:43:06;;;;;;;23.42;6.05;;;8.30;99.90;;;;;;5055318;28;20048;-66
2022/01/04 00:45:35;;;;;;;24.90;6.28;;;8.20;99.90;;;;;;5055331;28;20033;-67
2022/01/04 00:50:30;;;;;;;27.80;5.97;;;8.20;99.90;;;;;;5054695;28;20060;-67
2022/01/04 00:52:57;;;;;;;27.65;6.20;;;8.30;99.90;;;;;;5055403;28;20124;-66
2022/01/04 00:55:22;;;;;;;21.35;5.53;;;8.20;99.90;;;;;;5056502;28;20120;-66
2022/01/04 00:57:48;;;;;;;24.80;6.13;;;8.20;99.90;;;;;;5056204;28;20072;-66
2022/01/04 01:00:16;;;;;;;27.60;7.45;;;8.40;99.90;;;;;;5056352;28;20045;-66
2022/01/04 01:02:42;;;;;;;24.27;6.05;;;8.50;99.90;;;;;;5054986;28;20422;-66
2022/01/04 01:05:09;;;;;;;23.15;5.88;;;;;;;;;;5055238;28;20045;-66
2022/01/04 01:07:35;;;;;;;22.20;6.32;;;;;;;;;;5037779;28;20068;-66
2022/01/04 01:12:43;;;;;;;21.38;7.32;;;8.40;99.90;;;;;;5055040;28;20119;-66
2022/01/04 01:15:10;;;;;;;25.27;6.28;;;8.40;99.90;;;;;;5055124;28;20076;-66
2022/01/04 01:17:36;;;;;;;20.25;6.32;;;8.40;99.90;;;;;;5055633;28;20055;-66
2022/01/04 01:20:04;;;;;;;30.00;6.53;;;8.60;99.90;;;;;;5054142;28;20037;-66
2022/01/04 01:22:30;;;;;;;27.30;6.32;;;;;;;;;;5037707;28;20044;-66
2022/01/04 01:24:56;;;;;;;20.83;5.47;;;8.40;99.90;;;;;;5038489;28;20055;-66
2022/01/04 01:27:21;;;;;;;24.38;6.20;;;8.40;99.90;;;;;;5037937;28;20029;-66
2022/01/04 01:29:47;;;;;;;17.50;5.53;;;;;;;;;;5054626;28;20513;-66
2022/01/04 01:32:13;;;;;;;19.98;4.97;;;8.40;99.90;;;;;;5055039;28;20041;-66
2022/01/04 01:34:41;;;;;;;22.90;5.55;;;8.50;99.90;;;;;;5054147;28;20099;-66
2022/01/04 01:37:06;;;;;;;24.17;5.65;;;8.40;99.90;;;;;;5055170;28;20029;-66
2022/01/04 01:39:32;;;;;;;26.20;7.03;;;8.40;99.90;;;;;;5054616;28;20047;-66
2022/01/04 01:41:57;;;;;;;23.95;6.05;;;8.40;99.90;;;;;;5054307;28;20048;-66
2022/01/04 01:44:23;;;;;;;28.75;5.93;;;8.40;99.90;;;;;;5054420;28;20040;-66
2022/01/04 01:46:49;;;;;;;24.70;5.55;;;8.20;99.90;;;;;;5053716;28;20124;-66
2022/01/04 01:49:15;;;;;;;25.10;8.95;;;8.50;99.90;;;;;;5053842;28;20422;-67
2022/01/04 01:51:40;;;;;;;24.90;6.65;;;8.20;99.90;;;;;;5037038;28;20044;-66
2022/01/04 01:54:06;;;;;;;25.52;6.43;;;8.30;99.90;;;;;;5054138;28;20041;-66
2022/01/04 01:56:32;;;;;;;18.80;5.85;;;8.30;99.90;;;;;;5053351;28;20399;-67
2022/01/04 01:58:58;;;;;;;26.73;6.95;;;8.20;99.90;;;;;;5053088;28;20087;-66
2022/01/04 02:01:24;;;;;;;17.77;7.20;;;8.20;99.90;;;;;;5053353;28;20048;-66
2022/01/04 02:03:50;;;;;;;23.70;6.85;;;8.10;99.90;;;;;;5055103;28;20127;-66
2022/01/04 02:06:17;;;;;;;27.00;7.28;;;8.10;99.90;;;;;;5055828;28;20040;-65
2022/01/04 02:08:42;;;;;;;26.67;6.97;;;8.20;99.90;;;;;;5055552;28;20083;-66
2022/01/04 02:11:08;;;;;;;21.85;6.85;;;8.30;99.90;;;;;;5037077;28;20045;-66
2022/01/04 02:13:34;;;;;;;30.55;6.80;;;8.40;99.90;;;;;;5054124;28;20048;-66
2022/01/04 02:16:02;;;;;;;31.70;7.40;;;;;;;;;;5054080;28;20029;-66
2022/01/04 02:18:28;;;;;;;24.48;7.32;;;8.40;99.90;;;;;;5053721;28;20126;-66
2022/01/04 02:20:53;;;;;;;31.27;9.05;;;8.40;99.90;;;;;;5037001;28;20041;-67
2022/01/04 02:23:19;;;;;;;21.80;7.78;;;8.30;99.90;;;;;;5053172;28;20486;-66
2022/01/04 02:25:45;;;;;;;25.58;8.55;;;8.30;99.90;;;;;;5037382;28;20045;-66
2022/01/04 02:28:11;;;;;;;22.98;8.50;;;8.30;99.90;;;;;;5054784;28;20394;-67
2022/01/04 02:30:37;;;;;;;22.02;7.90;;;8.30;99.90;;;;;;5036674;28;20402;-66
2022/01/04 02:33:03;;;;;;;28.73;7.93;;;8.30;99.90;;;;;;5036891;28;20037;-66
2022/01/04 02:35:30;;;;;;;26.40;8.65;;;8.20;99.90;;;;;;5037631;28;20037;-66
2022/01/04 02:37:57;;;;;;;23.88;8.60;;;8.20;99.90;;;;;;5037333;28;20040;-66
2022/01/04 02:40:24;;;;;;;29.90;8.45;;;8.40;99.90;;;;;;5052772;28;20124;-66
2022/01/04 02:42:50;;;;;;;32.33;10.05;;;8.30;99.90;;;;;;5054203;28;20047;-66
2022/01/04 02:45:16;;;;;;;21.65;9.13;;;8.20;99.90;;;;;;5055521;28;20112;-66
2022/01/04 02:47:42;;;;;;;28.52;10.25;;;8.20;99.90;;;;;;5053746;28;20072;-66
2022/01/04 02:50:09;;;;;;;34.28;10.48;;;8.20;99.90;;;;;;5053437;28;20094;-66
2022/01/04 02:52:35;;;;;;;25.88;9.80;;;8.20;99.90;;;;;;5036635;28;20067;-66
2022/01/04 02:55:06;;;;;;;21.38;8.90;;;8.20;99.90;;;;;;5036101;28;20041;-66
2022/01/04 02:57:33;;;;;;;29.05;9.82;;;8.20;99.90;;;;;;5055562;28;20115;-67
2022/01/04 02:59:59;;;;;;;28.73;9.57;;;;;;;;;;5034492;28;20037;-66
2022/01/04 03:02:25;;;;;;;30.65;10.38;;;8.10;99.90;;;;;;5034519;28;20565;-66
2022/01/04 03:04:51;;;;;;;33.83;10.55;;;8.20;99.90;;;;;;5015874;28;20129;-66
2022/01/04 03:07:17;;;;;;;27.50;11.57;;;8.10;99.90;;;;;;5017074;28;20475;-66
2022/01/04 03:09:44;;;;;;;35.35;10.57;;;8.00;99.90;;;;;;5034843;28;20038;-66
2022/01/04 03:12:10;;;;;;;30.38;10.88;;;8.10;99.90;;;;;;5034650;28;20402;-67
2022/01/04 03:14:36;;;;;;;31.70;11.60;;;8.00;99.90;;;;;;5033355;28;20077;-67
2022/01/04 03:17:03;;;;;;;32.97;11.70;;;8.30;99.90;;;;;;5035396;28;20112;-67
2022/01/04 03:19:29;;;;;;;27.77;11.27;;;8.30;99.90;;;;;;5017266;28;20045;-66
2022/01/04 03:21:54;;;;;;;29.05;11.98;;;8.20;99.90;;;;;;5033822;28;20099;-66
2022/01/04 03:24:20;;;;;;;27.67;11.10;;;8.10;99.90;;;;;;5032901;28;20483;-66
2022/01/04 03:26:46;;;;;;;32.65;11.52;;;8.20;99.90;;;;;;5034279;28;20393;-66
2022/01/04 03:29:14;;;;;;;33.40;11.35;;;8.10;99.90;;;;;;5037688;28;20128;-66
2022/01/04 03:31:40;;;;;;;29.67;12.02;;;8.20;99.90;;;;;;5036087;28;20048;-67
2022/01/04 03:34:05;;;;;;;35.38;11.02;;;8.00;99.90;;;;;;5020113;28;20045;-67
2022/01/04 03:36:31;;;;;;;28.23;11.65;;;8.20;99.90;;;;;;5019357;28;20499;-67
2022/01/04 03:38:58;;;;;;;34.63;12.13;;;8.10;99.90;;;;;;5020377;28;20037;-67
2022/01/04 03:41:26;;;;;;;32.85;12.35;;;8.20;99.90;;;;;;5036556;28;20041;-66
2022/01/04 03:43:53;;;;;;;29.80;11.63;;;8.30;99.90;;;;;;5019773;28;20388;-67
2022/01/04 03:46:19;;;;;;;36.28;13.45;;;8.20;99.90;;;;;;5019190;28;20411;-66
2022/01/04 03:48:45;;;;;;;28.55;11.82;;;8.40;99.90;;;;;;5037152;28;20116;-66
2022/01/04 03:51:11;;;;;;;26.73;12.40;;;8.30;99.90;;;;;;5035357;28;20102;-66
2022/01/04 03:53:37;;;;;;;35.28;14.07;;;8.30;99.90;;;;;;5019458;28;20052;-67
2022/01/04 03:56:04;;;;;;;30.95;14.02;;;;;;;;;;5035903;28;20045;-67
2022/01/04 03:58:29;;;;;;;33.22;13.40;;;8.30;99.90;;;;;;5038034;28;20029;-67
2022/01/04 04:00:55;;;;;;;30.30;12.63;;;8.30;99.90;;;;;;5036038;28;20045;-66
2022/01/04 04:03:21;;;;;;;43.90;15.65;;;8.40;99.90;;;;;;5036073;28;20045;-66
2022/01/04 04:05:46;;;;;;;31.38;12.23;;;8.40;99.90;;;;;;5036126;28;20048;-67
2022/01/04 04:08:12;;;;;;;33.72;12.65;;;8.50;99.90;;;;;;5037064;28;20045;-67
2022/01/04 04:10:38;;;;;;;28.65;12.93;;;;;;;;;;5038614;28;20045;-67
2022/01/04 04:13:04;;;;;;;42.08;14.57;;;8.20;99.90;;;;;;5036559;28;20037;-66
2022/01/04 04:15:31;;;;;;;33.83;13.68;;;8.40;99.90;;;;;;5035903;28;20045;-67
2022/01/04 04:17:56;;;;;;;33.85;13.45;;;8.40;99.90;;;;;;5035850;28;20049;-67
2022/01/04 04:20:22;;;;;;;31.75;13.27;;;8.30;99.90;;;;;;5035801;28;20084;-67
2022/01/04 04:22:48;;;;;;;31.63;12.55;;;8.40;99.90;;;;;;5036509;28;20042;-68
2022/01/04 04:25:14;;;;;;;27.77;12.70;;;8.30;99.90;;;;;;5037005;28;20044;-67
2022/01/04 04:27:40;;;;;;;31.85;13.93;;;8.40;99.90;;;;;;5035879;28;20048;-67
2022/01/04 04:30:06;;;;;;;29.95;14.18;;;8.20;99.90;;;;;;5037124;28;20045;-67
2022/01/04 04:32:32;;;;;;;39.13;12.93;;;8.30;99.90;;;;;;5036362;28;20044;-67
2022/01/04 04:34:58;;;;;;;31.92;13.25;;;8.40;99.90;;;;;;5036297;28;20124;-67
2022/01/04 04:37:23;;;;;;;37.05;15.57;;;8.20;99.90;;;;;;5037065;28;20033;-67
2022/01/04 04:39:49;;;;;;;30.27;14.45;;;8.20;99.90;;;;;;5019752;28;20519;-67
2022/01/04 04:42:15;;;;;;;32.40;12.73;;;8.40;99.90;;;;;;5018718;28;20061;-67
2022/01/04 04:44:41;;;;;;;32.90;11.65;;;;;;;;;;5035686;28;20083;-67
2022/01/04 04:47:07;;;;;;;33.42;13.63;;;8.30;99.90;;;;;;5034838;28;20495;-67
2022/01/04 04:49:32;;;;;;;30.33;11.60;;;8.40;99.90;;;;;;5035433;28;20191;-67
2022/01/04 04:51:59;;;;;;;36.58;12.98;;;8.20;99.90;;;;;;5045014;28;20501;-67
2022/01/04 04:54:26;;;;;;;28.30;13.73;;;8.10;99.90;;;;;;5039161;28;20046;-67
2022/01/04 04:56:51;;;;;;;32.30;12.50;;;8.20;99.90;;;;;;5037826;28;20125;-67
2022/01/04 04:59:17;;;;;;;32.67;12.45;;;8.20;99.90;;;;;;5039204;28;20061;-67
2022/01/04 05:01:43;;;;;;;31.50;12.48;;;8.20;99.90;;;;;;5037497;28;20129;-67
2022/01/04 05:04:08;;;;;;;31.60;12.80;;;8.10;99.90;;;;;;5035399;28;20045;-67
2022/01/04 05:06:34;;;;;;;34.03;12.05;;;8.20;99.90;;;;;;5034651;28;20148;-68
2022/01/04 05:08:59;;;;;;;31.70;12.93;;;8.20;99.90;;;;;;5032724;28;20042;-67
2022/01/04 05:11:26;;;;;;;33.30;13.45;;;8.20;99.90;;;;;;5034041;28;20072;-67
2022/01/04 05:13:52;;;;;;;37.63;12.05;;;8.00;99.90;;;;;;5032999;28;20041;-67
2022/01/04 05:16:18;;;;;;;32.88;13.05;;;8.20;99.90;;;;;;5032642;28;20076;-68
2022/01/04 05:18:43;;;;;;;38.45;14.00;;;8.10;99.90;;;;;;5033862;28;20076;-68
2022/01/04 05:21:09;;;;;;;27.20;13.00;;;8.20;99.90;;;;;;5033910;28;20049;-68
2022/01/04 05:23:34;;;;;;;31.02;12.20;;;8.20;99.90;;;;;;5033854;28;20086;-67
2022/01/04 05:26:00;;;;;;;33.47;14.95;;;;;;;;;;5036929;28;20525;-66
2022/01/04 05:28:26;;;;;;;33.97;13.90;;;8.20;99.90;;;;;;5049148;28;20095;-67
2022/01/04 05:30:52;;;;;;;35.97;14.38;;;8.20;99.90;;;;;;5047997;28;20104;-67
2022/01/04 05:33:17;;;;;;;33.10;13.10;;;8.30;99.90;;;;;;5033239;28;20041;-68
2022/01/04 05:35:43;;;;;;;30.48;12.93;;;8.40;99.90;;;;;;5033525;28;20033;-68
2022/01/04 05:38:09;;;;;;;28.30;13.98;;;8.20;99.90;;;;;;5033494;28;20398;-67
2022/01/04 05:40:34;;;;;;;33.63;12.38;;;8.50;99.90;;;;;;5033624;28;20033;-67
2022/01/04 05:43:00;;;;;;;34.50;12.80;;;8.30;99.90;;;;;;5032196;28;20510;-67
2022/01/04 05:45:26;;;;;;;31.15;12.85;;;8.30;99.90;;;;;;5032189;28;20053;-68
2022/01/04 05:47:51;;;;;;;30.77;13.43;;;8.30;99.90;;;;;;5031751;28;20045;-67
2022/01/04 05:50:17;;;;;;;31.00;13.07;;;8.20;99.90;;;;;;5033240;28;20140;-67
2022/01/04 05:52:42;;;;;;;33.15;13.00;;;8.40;99.90;;;;;;5051800;28;20080;-67
2022/01/04 05:55:09;;;;;;;32.45;14.48;;;8.40;99.90;;;;;;5052675;28;20039;-67
2022/01/04 05:57:35;;;;;;;40.03;12.85;;;8.30;99.90;;;;;;5052016;28;20530;-67
2022/01/04 06:00:03;;;;;;;43.38;14.40;;;8.30;99.90;;;;;;5052797;28;20120;-68
2022/01/04 06:02:28;;;;;;;32.10;14.10;;;8.40;99.90;;;;;;5052988;28;20087;-68
2022/01/04 06:04:54;;;;;;;30.85;12.50;;;8.30;99.90;;;;;;5053262;28;20037;-68
2022/01/04 06:07:20;;;;;;;30.60;11.38;;;8.30;99.90;;;;;;5053057;28;20033;-67
2022/01/04 06:09:48;;;;;;;31.08;11.57;;;8.40;99.90;;;;;;5053125;28;20029;-68
2022/01/04 06:15:00;;;;;;;20.75;7.97;;;8.30;99.90;;;;;;5051945;28;20060;-68
2022/01/04 06:17:49;;;;;;;21.25;7.50;;;8.30;99.90;;;;;;5052939;28;20043;-68
2022/01/04 06:20:21;;;;;;;24.70;9.23;;;8.30;99.90;;;;;;5049552;28;20087;-68
2022/01/04 06:22:47;;;;;;;23.20;9.32;;;8.30;99.90;;;;;;5033128;28;20410;-68
2022/01/04 06:25:17;;;;;;;22.92;8.98;;;8.40;99.90;;;;;;5032951;28;20116;-67
2022/01/04 06:27:50;;;;;;;23.23;8.50;;;8.20;99.90;;;;;;5032868;28;20504;-68
2022/01/04 06:30:21;;;;;;;22.85;8.85;;;8.20;99.90;;;;;;5032959;28;20076;-68
2022/01/04 06:32:47;;;;;;;18.13;8.00;;;8.10;99.90;;;;;;5045707;28;20084;-68
2022/01/04 06:35:14;;;;;;;26.20;8.95;;;8.20;99.90;;;;;;5049822;28;20479;-67
2022/01/04 06:37:41;;;;;;;19.02;9.60;;;8.20;99.90;;;;;;5042704;28;20037;-67
2022/01/04 06:40:08;;;;;;;25.77;10.73;;;8.20;99.90;;;;;;5048665;28;20045;-66
2022/01/04 06:42:34;;;;;;;24.02;9.18;;;8.20;99.90;;;;;;5047479;28;20036;-67
2022/01/04 06:44:59;;;;;;;23.67;9.30;;;8.10;99.90;;;;;;5043217;28;20556;-68
2022/01/04 06:47:25;;;;;;;25.15;10.38;;;8.20;99.90;;;;;;5036796;28;20044;-68
2022/01/04 06:49:50;;;;;;;17.50;10.38;;;8.10;99.90;;;;;;5044368;28;20058;-66
2022/01/04 06:52:16;;;;;;;21.17;9.30;;;8.00;99.90;;;;;;5046913;28;20049;-66
2022/01/04 06:54:42;;;;;;;28.48;9.90;;;;;;;;;;5041819;28;20030;-66
2022/01/04 06:57:08;;;;;;;23.27;9.95;;;8.10;99.90;;;;;;5038820;28;20049;-67
2022/01/04 06:59:33;;;;;;;20.25;9.82;;;8.10;99.90;;;;;;5041401;28;20052;-67
2022/01/04 07:02:03;;;;;;;21.67;11.45;;;;;;;;;;5050014;28;20044;-63
2022/01/04 07:04:29;;;;;;;28.85;13.23;;;;;;;;;;5049177;28;20099;-63
2022/01/04 07:06:54;;;;;;;26.33;12.82;;;8.20;99.90;;;;;;5050881;28;20548;-64
2022/01/04 07:09:20;;;;;;;32.05;13.57;;;8.10;99.90;;;;;;5050002;28;20052;-63
2022/01/04 07:11:46;;;;;;;27.83;14.07;;;;;;;;;;5049418;28;20048;-64
2022/01/04 07:14:11;;;;;;;32.00;15.50;;;8.20;99.90;;;;;;5042765;28;20041;-64
2022/01/04 07:16:38;;;;;;;28.13;14.15;;;8.10;99.90;;;;;;5045280;28;20029;-64
2022/01/04 07:19:04;;;;;;;24.33;13.95;;;;;;;;;;5049979;28;20530;-65
2022/01/04 07:21:29;;;;;;;24.70;14.32;;;8.20;99.90;;;;;;5048508;28;20049;-64
2022/01/04 07:23:55;;;;;;;21.90;14.00;;;;;;;;;;5046241;28;20191;-65
2022/01/04 07:26:22;;;;;;;28.83;13.63;;;;;;;;;;5049805;28;20037;-64
2022/01/04 07:28:48;;;;;;;27.48;13.10;;;8.10;99.90;;;;;;5042073;28;20556;-65
2022/01/04 07:31:15;;;;;;;26.88;13.80;;;8.20;99.90;;;;;;5050503;28;20048;-68
2022/01/04 07:33:41;;;;;;;30.58;13.43;;;;;;;;;;5053710;28;20048;-65
2022/01/04 07:36:07;;;;;;;26.98;14.40;;;8.20;99.90;;;;;;5051545;28;20479;-65
2022/01/04 07:38:34;;;;;;;27.58;14.73;;;8.10;99.90;;;;;;5051985;28;20037;-66
2022/01/04 07:41:00;;;;;;;30.48;14.75;;;;;;;;;;5051930;28;20037;-64
2022/01/04 07:43:25;;;;;;;34.08;15.90;;;8.20;99.90;;;;;;5050813;28;20071;-67
2022/01/04 07:45:52;;;;;;;33.95;16.75;;;8.10;99.90;;;;;;5050519;28;20072;-68
2022/01/04 07:48:18;;;;;;;28.58;16.05;;;8.30;99.90;;;;;;5051227;28;20041;-63
2022/01/04 07:50:44;;;;;;;32.72;16.30;;;;;;;;;;5051714;28;20061;-66
2022/01/04 07:53:10;;;;;;;31.88;15.50;;;8.20;99.90;;;;;;5050217;28;20060;-67
2022/01/04 07:55:36;;;;;;;27.48;14.75;;;;;;;;;;5050647;28;20524;-64
2022/01/04 07:58:02;;;;;;;30.05;14.55;;;8.10;99.90;;;;;;5046223;28;20126;-65
2022/01/04 08:00:28;;;;;;;26.25;13.15;;;8.20;99.90;;;;;;5042603;28;20169;-65
2022/01/04 08:02:55;;;;;;;32.03;13.88;;;8.20;99.90;;;;;;5050980;28;20094;-63
2022/01/04 08:05:21;;;;;;;29.70;13.40;;;8.20;99.90;;;;;;5050382;28;20060;-66
2022/01/04 08:07:47;;;;;;;25.42;13.10;;;8.40;99.90;;;;;;5051038;28;20107;-64
2022/01/04 08:10:13;;;;;;;30.85;13.02;;;8.20;99.90;;;;;;5051236;28;20445;-64
2022/01/04 08:12:42;;;;;;;25.98;12.55;;;8.40;99.90;;;;;;5050073;28;20051;-64
2022/01/04 08:15:08;;;;;;;28.17;12.77;;;8.30;99.90;;;;;;5045734;28;20037;-64
2022/01/04 08:17:36;;;;;;;21.65;11.82;;;;;;;;;;5054883;28;20044;-64
2022/01/04 08:20:03;;;;;;;17.48;7.00;;;8.20;99.90;;;;;;5044199;28;20044;-66
2022/01/04 08:22:32;;;;;;;9.02;4.13;;;;;;;;;;5046580;28;20498;-66
2022/01/04 08:25:02;;;;;;;6.93;2.55;;;8.30;99.90;;;;;;5047839;28;20080;-66
2022/01/04 08:27:28;;;;;;;8.52;2.20;;;8.00;99.90;;;;;;5050092;28;20060;-67
2022/01/04 08:29:54;;;;;;;5.45;1.63;;;8.00;99.90;;;;;;5048976;28;20043;-65
2022/01/04 08:32:21;;;;;;;3.85;1.88;;;;;;;;;;5065278;28;20093;-65
2022/01/04 08:34:47;;;;;;;4.82;1.92;;;7.80;99.90;;;;;;5041222;28;20045;-65
2022/01/04 08:37:13;;;;;;;6.95;2.50;;;8.00;99.90;;;;;;5052267;28;20478;-68
2022/01/04 08:39:38;;;;;;;3.92;1.42;;;7.90;99.90;;;;;;5044099;28;20041;-66
2022/01/04 08:42:04;;;;;;;6.88;1.60;;;7.80;99.90;;;;;;5051347;28;20045;-67
2022/01/04 08:44:32;;;;;;;6.25;1.77;;;7.80;99.90;;;;;;5044089;28;20037;-69
2022/01/04 08:46:58;;;;;;;5.55;2.13;;;;;;;;;;5040108;28;20116;-67
2022/01/04 08:49:24;;;;;;;6.18;2.17;;;;;;;;;;5050973;28;20126;-68
2022/01/04 08:51:50;;;;;;;8.27;2.10;;;;;;;;;;5047655;28;20093;-68
2022/01/04 08:54:16;;;;;;;7.25;2.65;;;7.70;99.90;;;;;;5047908;28;20041;-70
2022/01/04 08:56:43;;;;;;;14.48;3.00;;;7.80;99.90;;;;;;5035945;28;20562;-72
2022/01/04 08:59:10;;;;;;;10.68;3.00;;;;;;;;;;5032915;28;20125;-68
2022/01/04 09:01:37;;;;;;;11.05;3.20;;;7.60;99.90;;;;;;5036078;28;20552;-69
2022/01/04 09:04:03;;;;;;;9.93;4.85;;;7.80;99.90;;;;;;5040045;28;20506;-69
2022/01/04 09:06:29;;;;;;;14.57;5.00;;;7.70;99.90;;;;;;5040273;28;20403;-68
2022/01/04 09:08:56;;;;;;;12.18;6.00;;;7.80;99.90;;;;;;5047279;28;20514;-68
2022/01/04 09:11:25;;;;;;;18.70;6.53;;;7.70;99.90;;;;;;5048952;28;20053;-68
2022/01/04 09:13:55;;;;;;;23.02;7.18;;;;;;;;;;5038420;28;20490;-67
2022/01/04 09:19:05;;;;;;;21.00;7.57;;;7.90;99.90;;;;;;5049032;28;20554;-69
2022/01/04 09:21:30;;;;;;;19.67;8.45;;;7.90;99.90;;;;;;5044620;28;20127;-66
2022/01/04 09:23:59;;;;;;;22.60;8.48;;;8.00;99.90;;;;;;5046095;28;20064;-67
2022/01/04 09:26:26;;;;;;;20.73;8.65;;;7.80;99.90;;;;;;5049915;28;20049;-67
2022/01/04 09:28:53;;;;;;;19.67;9.02;;;7.90;99.90;;;;;;5046137;28;20072;-67
2022/01/04 09:31:24;;;;;;;30.75;10.82;;;8.10;99.90;;;;;;5048191;28;20045;-67
2022/01/04 09:33:50;;;;;;;20.88;9.40;;;8.00;99.90;;;;;;5047153;28;20507;-67
2022/01/04 09:36:16;;;;;;;18.83;7.43;;;8.10;99.90;;;;;;5044693;28;20387;-67
2022/01/04 09:38:42;;;;;;;19.33;7.68;;;8.00;99.90;;;;;;5039384;28;20038;-68
2022/01/04 09:41:08;;;;;;;19.60;6.18;;;8.00;99.90;;;;;;5038284;28;20040;-67
2022/01/04 09:43:34;;;;;;;14.13;5.00;;;;;;;;;;5024599;28;20049;-68
2022/01/04 09:46:00;;;;;;;15.10;4.78;;;8.10;99.90;;;;;;5038229;28;20037;-69
2022/01/04 09:48:26;;;;;;;14.82;2.67;;;8.00;99.90;;;;;;5038248;28;20041;-71
2022/01/04 09:50:55;;;;;;;13.40;3.15;;;8.00;99.90;;;;;;5034596;28;20466;-69
2022/01/04 09:53:22;;;;;;;8.60;2.45;;;;;;;;;;5034498;28;20049;-68
2022/01/04 09:55:53;;;;;;;12.13;2.42;;;7.90;99.90;;;;;;5036725;28;20056;-66
2022/01/04 09:58:21;;;;;;;10.30;2.40;;;7.90;99.90;;;;;;5036745;28;20099;-66
2022/01/04 10:00:48;;;;;;;5.30;1.52;;;7.80;99.90;;;;;;5039109;28;20172;-67
2022/01/04 10:03:16;;;;;;;5.80;1.95;;;;;;;;;;5046257;28;20091;-65
2022/01/04 10:05:42;;;;;;;7.60;1.42;;;7.70;99.90;;;;;;5047890;28;20466;-65
2022/01/04 10:08:09;;;;;;;5.15;1.77;;;7.90;99.90;;;;;;5046970;28;20108;-68
2022/01/04 10:10:35;;;;;;;4.13;1.40;;;7.60;99.90;;;;;;5046258;28;20040;-63
2022/01/04 10:13:05;;;;;;;3.92;1.50;;;7.60;99.90;;;;;;5048228;28;20498;-68
2022/01/04 10:15:44;;;;;;;5.13;1.42;;;7.70;99.90;;;;;;5047094;28;20053;-67
2022/01/04 10:18:12;;;;;;;5.43;0.98;;;7.70;99.90;;;;;;5047640;28;20482;-66
2022/01/04 10:20:43;;;;;;;4.63;1.63;;;7.60;99.90;;;;;;5047239;28;20047;-66
2022/01/04 10:23:17;;;;;;;2.85;1.10;;;;;;;;;;5047410;28;20124;-67
2022/01/04 10:25:44;;;;;;;6.28;1.35;;;;;;;;;;5048482;28;20047;-65
2022/01/04 10:28:10;;;;;;;4.50;1.50;;;7.60;99.90;;;;;;5047210;28;20379;-67
2022/01/04 10:30:38;;;;;;;6.38;1.00;;;7.50;99.90;;;;;;5045328;28;20063;-68
2022/01/04 10:33:10;;;;;;;4.57;0.95;;;7.50;99.90;;;;;;5048817;28;20064;-68
2022/01/04 10:35:40;;;;;;;4.45;2.05;;;7.50;99.90;;;;;;5048683;28;20033;-69
2022/01/04 10:38:22;;;;;;;2.65;1.05;;;7.50;99.90;;;;;;5052604;28;20037;-68
2022/01/04 10:40:59;;;;;;;8.18;1.38;;;7.50;99.90;;;;;;5031880;28;20513;-68
2022/01/04 10:43:30;;;;;;;4.28;1.35;;;7.60;99.90;;;;;;5049380;28;20047;-68
2022/01/04 10:45:57;;;;;;;6.63;1.52;;;7.50;99.90;;;;;;5047936;28;20049;-69
2022/01/04 10:48:26;;;;;;;7.10;1.45;;;7.50;99.90;;;;;;5049540;28;20041;-70
2022/01/04 10:51:05;;;;;;;5.35;1.58;;;7.50;99.90;;;;;;5052205;28;20091;-70
2022/01/04 10:53:38;;;;;;;9.07;2.25;;;7.30;99.90;;;;;;5048472;28;20103;-70
2022/01/04 10:56:07;;;;;;;5.72;1.70;;;7.40;99.90;;;;;;5051760;28;20121;-70
2022/01/04 10:58:48;;;;;;;8.98;2.28;;;7.30;99.90;;;;;;5050669;28;20045;-70
2022/01/04 11:01:17;;;;;;;7.95;1.75;;;7.30;99.90;;;;;;5051204;28;20048;-68
2022/01/04 11:03:47;;;;;;;5.35;1.58;;;7.40;99.90;;;;;;5048137;28;20578;-66
2022/01/04 11:06:42;;;;;;;4.53;1.35;;;7.10;99.90;;;;;;5054019;28;20510;-67
2022/01/04 11:09:09;;;;;;;3.22;1.02;;;7.10;99.90;;;;;;5048809;28;20128;-67
2022/01/04 11:11:35;;;;;;;2.85;0.85;;;7.10;99.90;;;;;;5049862;28;20049;-68
2022/01/04 11:14:01;;;;;;;9.30;1.20;;;;;;;;;;5050165;28;20048;-68
2022/01/04 11:16:30;;;;;;;3.28;1.15;;;6.80;99.90;;;;;;5053564;28;20114;-69
2022/01/04 11:18:57;;;;;;;6.68;1.30;;;6.70;99.90;;;;;;5051555;28;20048;-69
2022/01/04 11:21:26;;;;;;;2.47;1.17;;;6.90;99.90;;;;;;5053517;28;20118;-69
2022/01/04 11:23:52;;;;;;;2.65;1.00;;;7.00;99.90;;;;;;5052831;28;20063;-69
2022/01/04 11:26:19;;;;;;;3.45;1.08;;;7.00;99.90;;;;;;5047777;28;20435;-69
2022/01/04 11:28:47;;;;;;;5.53;1.27;;;6.90;99.90;;;;;;5038070;28;20029;-69
2022/01/04 11:31:45;;;;;;;4.57;1.42;;;6.90;99.90;;;;;;5045433;28;20045;-66
2022/01/04 11:34:36;;;;;;;3.45;1.20;;;;;;;;;;5049745;28;20037;-66
2022/01/04 11:37:02;;;;;;;3.33;1.00;;;6.90;99.90;;;;;;5041187;28;20171;-67
2022/01/04 11:39:39;;;;;;;4.78;1.17;;;7.10;99.90;;;;;;5051591;28;20076;-67
2022/01/04 11:42:09;;;;;;;1.27;0.60;;;6.90;99.90;;;;;;5048558;28;20052;-68
2022/01/04 11:44:44;;;;;;;2.47;0.90;;;6.80;99.90;;;;;;5048176;28;20052;-68
2022/01/04 11:47:15;;;;;;;2.60;0.98;;;6.80;99.90;;;;;;5031129;28;20049;-67
2022/01/04 11:50:20;;;;;;;3.70;1.02;;;6.70;99.90;;;;;;5044376;28;20053;-66
2022/01/04 11:52:49;;;;;;;3.35;1.05;;;6.60;99.90;;;;;;5044496;28;20047;-67
2022/01/04 11:55:38;;;;;;;3.15;0.90;;;6.50;99.90;;;;;;5032997;28;20425;-66
2022/01/04 11:58:14;;;;;;;6.35;1.00;;;6.50;99.90;;;;;;5044351;28;20028;-65
2022/01/04 12:00:43;;;;;;;2.55;1.10;;;6.60;99.90;;;;;;5045409;28;20073;-66
2022/01/04 12:03:20;;;;;;;2.20;1.02;;;6.80;99.90;;;;;;5045144;28;20041;-66
2022/01/04 12:05:54;;;;;;;5.85;1.33;;;6.70;99.90;;;;;;5051776;28;20654;-66
2022/01/04 12:08:25;;;;;;;4.50;1.25;;;6.80;99.90;;;;;;5050998;28;20059;-66
2022/01/04 12:10:56;;;;;;;2.13;1.02;;;6.70;99.90;;;;;;5052799;28;20086;-66
2022/01/04 12:13:24;;;;;;;4.90;1.63;;;6.60;99.90;;;;;;5051503;28;20045;-66
2022/01/04 12:15:57;;;;;;;6.75;1.52;;;6.80;99.90;;;;;;5050897;28;20041;-66
2022/01/04 12:18:22;;;;;;;6.10;1.02;;;7.00;99.90;;;;;;5050967;28;20049;-67
2022/01/04 12:20:49;;;;;;;6.90;2.45;;;6.90;99.90;;;;;;5052602;28;20057;-66
2022/01/04 12:23:23;;;;;;;4.63;1.23;;;6.90;99.90;;;;;;5049571;28;20448;-66
2022/01/04 12:26:13;;;;;;;5.10;1.17;;;7.00;99.90;;;;;;5051827;28;20049;-66
2022/01/04 12:28:56;;;;;;;4.00;1.05;;;6.90;99.90;;;;;;5051881;28;20053;-66
2022/01/04 12:31:24;;;;;;;5.18;1.42;;;;;;;;;;5050304;28;20056;-66
2022/01/04 12:33:54;;;;;;;5.03;1.40;;;6.90;99.90;;;;;;5051021;28;20546;-66
2022/01/04 12:36:30;;;;;;;4.07;1.63;;;7.00;99.90;;;;;;5041596;28;20045;-66
2022/01/04 12:39:01;;;;;;;3.67;1.23;;;7.10;99.90;;;;;;5050420;28;20095;-66
2022/01/04 12:41:27;;;;;;;5.10;1.48;;;6.80;99.90;;;;;;5050776;28;20097;-66
2022/01/04 12:43:54;;;;;;;10.18;1.95;;;6.90;99.90;;;;;;5052043;28;20039;-66
2022/01/04 12:46:31;;;;;;;5.22;1.77;;;6.80;99.90;;;;;;5050590;28;20110;-66
2022/01/04 12:49:01;;;;;;;7.88;1.80;;;;;;;;;;5040338;28;20067;-65
2022/01/04 12:51:38;;;;;;;9.52;2.88;;;6.80;99.90;;;;;;5029833;28;20552;-65
2022/01/04 12:54:07;;;;;;;4.78;1.15;;;6.80;99.90;;;;;;5038466;28;20427;-65
2022/01/04 12:56:39;;;;;;;6.70;1.17;;;6.70;99.90;;;;;;5051468;28;20060;-65
2022/01/04 12:59:04;;;;;;;5.80;1.23;;;6.70;99.90;;;;;;5051649;28;20033;-65
2022/01/04 13:01:34;;;;;;;4.70;1.48;;;6.70;99.90;;;;;;5049871;28;20521;-65
2022/01/04 13:04:00;;;;;;;3.72;1.65;;;6.70;99.90;;;;;;5050335;28;20041;-65
2022/01/04 13:06:30;;;;;;;6.40;1.40;;;6.60;99.90;;;;;;5051288;28;20487;-65
2022/01/04 13:08:58;;;;;;;7.20;1.30;;;6.70;99.90;;;;;;5047611;28;20051;-65
2022/01/04 13:11:24;;;;;;;7.13;1.25;;;6.70;99.90;;;;;;5051080;28;20052;-65